createdAt,value
2022-09-30T00:00:22.711Z,97888.61
2022-09-30T00:05:24.389Z,97885.40
2022-09-30T00:10:26.417Z,97878.95
2022-09-30T00:15:28.527Z,97871.91
2022-09-30T00:20:30.875Z,97867.96
2022-09-30T00:25:32.917Z,97872.80
2022-09-30T00:30:34.832Z,97882.84
2022-09-30T00:35:43.535Z,97894.34
2022-09-30T00:40:46.008Z,97908.79
2022-09-30T00:45:58.006Z,97903.85
2022-09-30T00:51:02.779Z,97903.45
2022-09-30T00:56:17.237Z,97906.27
2022-09-30T01:01:19.725Z,97901.02
2022-09-30T01:06:23.299Z,97904.35
2022-09-30T01:11:26.859Z,97906.15
2022-09-30T01:17:06.829Z,97903.81
2022-09-30T01:22:23.870Z,97902.08
2022-09-30T01:27:36.856Z,97904.09
2022-09-30T01:32:45.213Z,97903.23
2022-09-30T01:37:56.059Z,97904.41
2022-09-30T01:43:11.776Z,97906.58
2022-09-30T01:48:26.109Z,97903.66
2022-09-30T01:53:39.634Z,97914.11
2022-09-30T01:58:51.794Z,97914.77
2022-09-30T02:04:01.908Z,97915.52
2022-09-30T02:09:13.667Z,97914.06
2022-09-30T02:14:28.331Z,97914.27
2022-09-30T02:19:37.986Z,97917.59
2022-09-30T02:24:41.186Z,97927.77
2022-09-30T02:29:47.696Z,97922.11
2022-09-30T02:34:55.498Z,97921.04
2022-09-30T02:40:13.836Z,97926.65
2022-09-30T02:45:22.705Z,97931.09
2022-09-30T02:51:23.362Z,97932.50
2022-09-30T02:56:41.303Z,97926.30
2022-09-30T03:01:47.416Z,97930.33
2022-09-30T03:06:49.675Z,97928.11
2022-09-30T03:11:55.624Z,97931.48
2022-09-30T03:17:36.644Z,97936.96
2022-09-30T03:22:54.744Z,97946.30
2022-09-30T03:28:22.876Z,97950.89
2022-09-30T03:33:48.107Z,97941.87
2022-09-30T03:39:13.305Z,97944.34
2022-09-30T03:44:56.219Z,97941.73
2022-09-30T03:50:02.861Z,97934.58
2022-09-30T03:55:08.726Z,97935.99
2022-09-30T04:00:13.281Z,97939.01
2022-09-30T04:05:15.111Z,97951.50
2022-09-30T04:10:16.936Z,97951.36
2022-09-30T04:15:19.364Z,97945.89
2022-09-30T04:20:21.065Z,97943.67
2022-09-30T04:25:22.822Z,97942.05
2022-09-30T04:30:27.172Z,97939.39
2022-09-30T04:35:30.222Z,97943.15
2022-09-30T04:40:32.278Z,97953.65
2022-09-30T04:45:57.104Z,97964.36
2022-09-30T04:51:00.501Z,97973.19
2022-09-30T04:56:02.377Z,97972.36
2022-09-30T05:01:13.187Z,97972.06
2022-09-30T05:06:14.998Z,97971.39
2022-09-30T05:11:19.290Z,97969.59
2022-09-30T05:16:22.117Z,97974.52
2022-09-30T05:21:23.806Z,97981.17
2022-09-30T05:26:25.849Z,97987.19
2022-09-30T05:31:28.043Z,97990.00
2022-09-30T05:36:34.179Z,97993.91
2022-09-30T05:41:36.044Z,97998.92
2022-09-30T05:46:37.946Z,98007.19
2022-09-30T05:51:40.775Z,98014.23
2022-09-30T05:56:43.461Z,98021.48
2022-09-30T06:01:45.693Z,98018.04
2022-09-30T06:06:47.844Z,98020.52
2022-09-30T06:11:49.570Z,98018.95
2022-09-30T06:16:52.067Z,98025.13
2022-09-30T06:21:54.079Z,98033.52
2022-09-30T06:26:55.890Z,98038.54
2022-09-30T06:31:58.146Z,98038.73
2022-09-30T06:37:00.085Z,98045.48
2022-09-30T06:42:01.999Z,98047.30
2022-09-30T06:47:04.696Z,98052.46
2022-09-30T06:52:09.573Z,98055.27
2022-09-30T06:57:11.307Z,98053.88
2022-09-30T07:02:13.443Z,98057.95
2022-09-30T07:07:15.577Z,98055.10
2022-09-30T07:12:18.240Z,98059.14
2022-09-30T07:17:20.083Z,98052.88
2022-09-30T07:22:36.045Z,98055.52
2022-09-30T07:27:51.617Z,98057.14
2022-09-30T07:32:53.715Z,98065.02
2022-09-30T07:37:55.414Z,98063.77
2022-09-30T07:42:58.504Z,98068.77
2022-09-30T07:48:00.436Z,98069.75
2022-09-30T07:53:09.052Z,98076.67
2022-09-30T07:58:17.508Z,98082.05
2022-09-30T08:03:19.310Z,98082.77
2022-09-30T08:08:21.114Z,98087.20
2022-09-30T08:13:23.365Z,98089.77
2022-09-30T08:18:36.099Z,98090.39
2022-09-30T08:23:44.522Z,98100.42
2022-09-30T08:28:48.450Z,98106.27
2022-09-30T08:33:50.950Z,98115.21
2022-09-30T08:38:53.510Z,98115.59
2022-09-30T08:44:16.434Z,98117.98
2022-09-30T08:49:36.854Z,98120.88
2022-09-30T08:54:43.514Z,98125.05
2022-09-30T08:59:48.973Z,98126.58
2022-09-30T09:05:00.789Z,98125.92
2022-09-30T09:10:16.513Z,98128.13
2022-09-30T09:15:37.753Z,98129.86
2022-09-30T09:20:47.467Z,98126.93
2022-09-30T09:25:53.059Z,98125.50
2022-09-30T09:30:58.894Z,98129.09
2022-09-30T09:36:03.600Z,98131.97
2022-09-30T09:41:11.303Z,98133.63
2022-09-30T09:46:28.142Z,98137.27
2022-09-30T09:51:36.101Z,98142.70
2022-09-30T09:56:38.007Z,98144.23
2022-09-30T10:01:50.566Z,98148.65
2022-09-30T10:06:54.431Z,98148.84
2022-09-30T10:12:08.094Z,98149.10
2022-09-30T10:17:22.178Z,98159.70
2022-09-30T10:22:32.373Z,98158.61
2022-09-30T10:27:36.935Z,98162.67
2022-09-30T10:32:38.860Z,98170.43
2022-09-30T10:37:53.219Z,98174.65
2022-09-30T10:42:56.664Z,98176.71
2022-09-30T10:48:14.275Z,98172.20
2022-09-30T10:53:30.918Z,98176.29
2022-09-30T10:58:48.605Z,98181.52
2022-09-30T11:04:02.789Z,98186.64
2022-09-30T11:09:33.456Z,98191.86
2022-09-30T11:14:56.902Z,98196.36
2022-09-30T11:20:10.693Z,98203.55
2022-09-30T11:25:19.753Z,98207.34
2022-09-30T11:30:38.034Z,98208.55
2022-09-30T11:35:46.259Z,98208.46
2022-09-30T11:40:53.702Z,98207.80
2022-09-30T11:46:24.138Z,98212.39
2022-09-30T11:51:32.203Z,98216.21
2022-09-30T11:56:51.006Z,98217.73
2022-09-30T12:01:54.568Z,98219.88
2022-09-30T12:06:58.450Z,98228.19
2022-09-30T12:12:02.203Z,98230.34
2022-09-30T12:17:12.001Z,98224.80
2022-09-30T12:22:41.810Z,98226.41
2022-09-30T12:28:40.431Z,98238.11
2022-09-30T12:34:09.173Z,98242.42
2022-09-30T12:39:25.603Z,98246.84
2022-09-30T12:44:51.331Z,98253.73
2022-09-30T12:49:56.301Z,98261.60
2022-09-30T12:55:36.001Z,98266.55
2022-09-30T13:00:58.634Z,98268.17
2022-09-30T13:06:06.668Z,98273.70
2022-09-30T13:12:00.997Z,98278.73
2022-09-30T13:17:25.026Z,98278.86
2022-09-30T13:22:41.781Z,98282.85
2022-09-30T13:27:45.636Z,98280.89
2022-09-30T13:33:05.297Z,98285.38
2022-09-30T13:38:13.560Z,98287.50
2022-09-30T13:43:42.648Z,98291.35
2022-09-30T13:49:19.622Z,98292.27
2022-09-30T13:54:35.304Z,98285.48
2022-09-30T13:59:59.196Z,98287.29
2022-09-30T14:05:36.875Z,98280.77
2022-09-30T14:11:11.899Z,98287.30
2022-09-30T14:16:35.428Z,98285.13
2022-09-30T14:21:49.723Z,98280.88
2022-09-30T14:27:16.845Z,98286.86
2022-09-30T14:32:46.316Z,98288.09
2022-09-30T14:38:01.957Z,98293.13
2022-09-30T14:43:13.441Z,98299.83
2022-09-30T14:48:20.487Z,98311.88
2022-09-30T14:53:28.973Z,98325.00
2022-09-30T14:58:42.693Z,98326.23
2022-09-30T15:04:15.102Z,98328.93
2022-09-30T15:09:34.646Z,98349.11
2022-09-30T15:14:50.747Z,98353.02
2022-09-30T15:19:55.882Z,98344.95
2022-09-30T15:25:04.892Z,98343.98
2022-09-30T15:30:15.766Z,98350.30
2022-09-30T15:35:21.905Z,98344.86
2022-09-30T15:40:46.362Z,98350.50
2022-09-30T15:45:50.652Z,98350.11
2022-09-30T15:50:56.233Z,98364.71
2022-09-30T15:56:22.601Z,98367.42
2022-09-30T16:01:46.716Z,98365.83
2022-09-30T16:06:58.794Z,98370.25
2022-09-30T16:12:08.834Z,98376.29
2022-09-30T16:17:19.533Z,98382.60
2022-09-30T16:22:33.810Z,98382.25
2022-09-30T16:27:36.079Z,98387.89
2022-09-30T16:32:41.883Z,98386.73
2022-09-30T16:37:44.425Z,98391.86
2022-09-30T16:42:47.046Z,98400.22
2022-09-30T16:47:50.614Z,98406.48
2022-09-30T16:52:52.813Z,98404.55
2022-09-30T16:57:59.620Z,98402.48
2022-09-30T17:03:01.496Z,98391.13
2022-09-30T17:08:03.485Z,98399.77
2022-09-30T17:13:06.383Z,98398.93
2022-09-30T17:18:10.474Z,98399.19
2022-09-30T17:23:13.113Z,98414.58
2022-09-30T17:28:16.063Z,98411.66
2022-09-30T17:33:19.765Z,98419.63
2022-09-30T17:38:21.810Z,98430.02
2022-09-30T17:43:25.864Z,98435.24
2022-09-30T17:48:28.048Z,98441.97
2022-09-30T17:53:31.097Z,98438.35
2022-09-30T17:58:33.527Z,98447.88
2022-09-30T18:03:36.669Z,98455.64
2022-09-30T18:08:41.995Z,98460.71
2022-09-30T18:13:57.865Z,98467.70
2022-09-30T18:19:16.122Z,98476.52
2022-09-30T18:24:38.493Z,98488.84
2022-09-30T18:29:42.558Z,98499.63
2022-09-30T18:34:44.754Z,98498.42
2022-09-30T18:39:46.991Z,98493.14
2022-09-30T18:44:51.144Z,98488.45
2022-09-30T18:49:53.225Z,98487.39
2022-09-30T18:54:55.357Z,98490.43
2022-09-30T18:59:58.100Z,98491.81
2022-09-30T19:05:09.023Z,98498.19
2022-09-30T19:10:18.572Z,98502.55
2022-09-30T19:15:21.977Z,98493.91
2022-09-30T19:20:25.617Z,98491.56
2022-09-30T19:25:27.737Z,98487.92
2022-09-30T19:30:29.759Z,98488.20
2022-09-30T19:35:39.512Z,98492.55
2022-09-30T19:40:43.736Z,98489.30
2022-09-30T19:45:55.169Z,98481.07
2022-09-30T19:51:02.628Z,98482.34
2022-09-30T19:56:17.697Z,98484.31
2022-09-30T20:01:25.390Z,98495.14
2022-09-30T20:06:28.451Z,98500.02
2022-09-30T20:11:36.194Z,98502.83
2022-09-30T20:16:38.947Z,98498.01
2022-09-30T20:21:44.109Z,98495.65
2022-09-30T20:26:47.282Z,98491.63
2022-09-30T20:31:50.500Z,98486.66
2022-09-30T20:36:52.461Z,98480.83
2022-09-30T20:41:55.988Z,98481.84
2022-09-30T20:46:58.386Z,98482.49
2022-09-30T20:52:02.868Z,98484.99
2022-09-30T20:57:08.158Z,98483.45
2022-09-30T21:02:14.033Z,98483.05
2022-09-30T21:07:16.042Z,98482.29
2022-09-30T21:12:20.285Z,98483.76
2022-09-30T21:17:22.176Z,98483.48
2022-09-30T21:22:24.158Z,98479.51
2022-09-30T21:27:25.872Z,98477.13
2022-09-30T21:32:29.016Z,98478.66
2022-09-30T21:37:31.004Z,98489.21
2022-09-30T21:42:32.763Z,98496.77
2022-09-30T21:47:34.427Z,98498.90
2022-09-30T21:52:38.175Z,98498.94
2022-09-30T21:57:40.205Z,98490.23
2022-09-30T22:02:42.058Z,98485.84
2022-09-30T22:07:44.125Z,98482.48
2022-09-30T22:12:46.431Z,98477.55
2022-09-30T22:17:51.322Z,98476.09
2022-09-30T22:22:53.438Z,98474.33
2022-09-30T22:27:55.465Z,98475.95
2022-09-30T22:33:21.978Z,98475.61
2022-09-30T22:38:27.943Z,98476.45
2022-09-30T22:43:32.137Z,98478.02
2022-09-30T22:48:34.970Z,98478.55
2022-09-30T22:53:38.806Z,98479.60
2022-09-30T22:58:40.743Z,98482.59
2022-09-30T23:03:43.461Z,98485.86
2022-09-30T23:08:46.280Z,98487.13
2022-09-30T23:13:48.048Z,98488.66
2022-09-30T23:18:59.595Z,98496.55
2022-09-30T23:24:51.327Z,98492.16
2022-09-30T23:29:54.989Z,98484.93
2022-09-30T23:34:56.749Z,98482.66
2022-09-30T23:39:58.643Z,98480.11
2022-09-30T23:45:00.444Z,98484.73
2022-09-30T23:50:02.326Z,98487.60
2022-09-30T23:55:04.733Z,98480.68
